Latest Weather Observations for Barimunya

IDW60801

Issued at 2:03 pm WST Friday 1 July 2016 (issued every 30 minutes, with the page automatically refreshed every 10 minutes)

About weather observations | Map of weather stations | Latest weather observations for WA | Other Formats
Station Details ID: 505053 Name: BARIMUNYA Lat: -22.67 Lon: 119.16 Height: 629.17 m
Data from the previous 72 hours. | See also: Recent months for locations in Western Australia
Date/Time
WST
Temp
°C
App
Temp
°C
Dew
Point
°C
Rel
Hum
%
Delta-T
°C
Wind Press
QNH
hPa
Press
MSL
hPa
Rain since
9am
mm
Dir  Spd
km/h
Gust
km/h
Spd
kts
Gust
kts
01/02:00pm 19.0 16.2 13.2 69 3.4 E 20 28 11 15 1020.6 1019.5 0.2
01/01:30pm 18.5 16.0 13.6 73 2.9 ESE 19 28 10 15 1021.0 1019.8 0.2
01/01:23pm 18.2 15.6 13.3 73 2.9 ESE 19 28 10 15 1021.1 1019.9 0.2
01/01:00pm 17.5 14.9 13.2 76 2.5 ESE 19 28 10 15 1021.6 1020.4 0.0
01/12:30pm 17.1 14.9 13.2 78 2.3 E 17 20 9 11 1022.2 1021.1 0.0
01/12:00pm 16.8 14.9 13.1 79 2.1 ESE 15 24 8 13 1022.7 1021.5 0.0
01/11:51am 16.8 14.5 13.1 79 2.1 ESE 17 22 9 12 1022.8 1021.6 0.0
01/11:30am 16.3 13.8 13.4 83 1.7 ESE 19 28 10 15 1023.0 1021.8 0.0
01/11:23am 15.9 12.7 13.0 83 1.7 SE 22 28 12 15 1022.9 1021.7 0.0
01/11:00am 15.5 12.6 13.0 85 1.4 SE 20 26 11 14 1022.7 1021.5 0.0
01/10:30am 14.9 12.1 12.6 86 1.3 ESE 19 28 10 15 1023.1 1021.9 0.0
01/10:00am 14.5 11.5 12.5 88 1.1 ESE 20 28 11 15 1023.3 1022.2 0.0
01/09:30am 14.1 11.1 12.7 91 0.8 ESE 20 32 11 17 1023.7 1022.6 0.0
01/09:11am 14.2 11.7 12.4 89 1.0 E 17 28 9 15 1023.6 1022.5 0.0
01/09:00am 14.3 11.5 12.7 90 0.9 ESE 19 24 10 13 1023.6 1022.5 9.8
01/08:30am 13.5 10.4 12.2 92 0.7 SE 20 26 11 14 1023.2 1022.1 9.8
01/08:00am 13.2 10.1 12.1 93 0.6 SE 20 26 11 14 1023.2 1022.1 9.8
01/07:38am 12.8 9.2 12.0 95 0.4 SE 22 30 12 16 1023.1 1021.8 9.8
01/07:30am 12.8 9.6 12.0 95 0.4 SE 20 26 11 14 1022.7 1021.4 9.8
01/07:00am 12.7 9.1 11.9 95 0.4 SE 22 26 12 14 1022.9 1021.6 9.8
01/06:30am 12.8 9.5 11.7 93 0.6 ESE 20 32 11 17 1022.6 1021.3 9.8
01/06:00am 13.0 10.0 11.9 93 0.6 ESE 19 26 10 14 1022.1 1020.8 9.8
01/05:30am 12.9 9.3 12.0 94 0.5 SE 22 30 12 16 1021.9 1020.6 9.8
01/05:00am 12.9 10.2 11.8 93 0.6 SE 17 24 9 13 1022.1 1020.8 9.8
01/04:30am 12.9 10.2 11.6 92 0.7 SE 17 24 9 13 1022.0 1020.7 9.8
01/04:26am 12.9 10.2 11.8 93 0.6 SE 17 24 9 13 1022.1 1020.8 9.8
01/04:00am 12.9 10.2 11.6 92 0.7 SE 17 22 9 12 1022.0 1020.7 9.8
01/03:30am 12.8 10.5 11.7 93 0.6 SE 15 19 8 10 1022.1 1020.8 9.8
01/03:00am 12.6 9.8 11.5 93 0.6 SE 17 24 9 13 1022.0 1020.7 9.8
01/02:30am 12.6 10.3 11.8 95 0.4 SSE 15 20 8 11 1022.2 1020.9 9.8
01/02:00am 12.5 10.6 11.7 95 0.4 SE 13 19 7 10 1022.3 1021.0 9.8
01/01:53am 12.4 10.1 11.6 95 0.4 SSE 15 19 8 10 1022.6 1021.3 9.8
01/01:30am 12.4 10.0 11.3 93 0.6 SSE 15 19 8 10 1022.9 1021.6 9.8
01/01:00am 12.3 9.1 11.2 93 0.6 SE 19 24 10 13 1023.1 1021.8 9.8
01/12:35am 12.1 8.9 11.2 94 0.5 SE 19 24 10 13 1022.9 1021.6 9.8
01/12:30am 12.2 9.0 11.1 93 0.6 SE 19 24 10 13 1022.7 1021.4 9.8
01/12:00am 12.2 10.1 11.1 93 0.6 ESE 13 17 7 9 1023.0 1021.7 9.8
 
Date/Time
WST
Temp
°C
App
Temp
°C
Dew
Point
°C
Rel
Hum
%
Delta-T
°C
Wind Press
QNH
hPa
Press
MSL
hPa
Rain since
9am
mm
Dir  Spd
km/h
Gust
km/h
Spd
kts
Gust
kts
30/11:30pm 12.2 9.8 11.3 94 0.5 SE 15 20 8 11 1022.8 1021.5 9.8
30/11:29pm 12.2 9.8 11.3 94 0.5 SE 15 20 8 11 1022.8 1021.5 9.8
30/11:00pm 12.3 9.1 11.4 94 0.5 ESE 19 24 10 13 1023.0 1021.7 9.8
30/10:30pm 12.7 10.5 12.1 96 0.3 SE 15 20 8 11 1022.9 1021.6 9.8
30/10:00pm 12.6 10.9 12.3 98 0.2 ESE 13 19 7 10 1022.9 1021.6 9.8
30/09:45pm 12.4 11.3 11.9 97 0.3 ESE 9 15 5 8 1023.1 1021.8 9.8
30/09:30pm 12.4 9.8 11.9 97 0.3 ESE 17 22 9 12 1022.9 1021.6 9.8
30/09:00pm 12.4 8.8 11.9 97 0.3 SE 22 28 12 15 1023.1 1021.8 9.8
30/08:40pm 12.7 10.2 12.2 97 0.3 SE 17 20 9 11 1023.0 1021.7 9.6
30/08:30pm 12.8 10.3 12.3 97 0.3 SE 17 20 9 11 1023.1 1021.8 9.4
30/08:00pm 12.7 8.8 12.2 97 0.3 ESE 24 28 13 15 1022.7 1021.4 9.0
30/07:44pm 12.8 8.9 12.2 96 0.3 ESE 24 32 13 17 1022.6 1021.3 8.4
30/07:30pm 13.0 9.2 12.4 96 0.3 ESE 24 32 13 17 1022.1 1020.8 8.2
30/07:07pm 13.2 10.8 12.7 97 0.3 ESE 17 22 9 12 1022.2 1020.9 8.0
30/07:00pm 13.2 10.8 12.7 97 0.3 SE 17 20 9 11 1022.1 1020.8 7.8
30/06:52pm 13.2 10.8 12.6 96 0.3 ESE 17 22 9 12 1022.1 1020.8 7.6
30/06:42pm 13.3 10.5 12.7 96 0.3 ESE 19 24 10 13 1022.0 1020.7 7.6
30/06:30pm 13.4 10.7 12.9 97 0.3 ESE 19 20 10 11 1021.7 1020.4 7.4
30/06:25pm 13.4 11.1 12.9 97 0.3 ESE 17 20 9 11 1021.7 1020.4 7.2
30/06:00pm 13.6 11.7 13.0 96 0.3 ESE 15 20 8 11 1021.3 1020.0 6.8
30/05:58pm 13.5 11.6 12.9 96 0.3 ESE 15 20 8 11 1021.4 1020.1 6.8
30/05:44pm 13.6 11.3 13.0 96 0.3 ESE 17 22 9 12 1021.2 1019.9 6.2
30/05:30pm 13.6 10.9 13.0 96 0.3 ESE 19 24 10 13 1020.9 1019.5 5.8
30/05:28pm 13.6 10.9 12.8 95 0.5 ESE 19 24 10 13 1020.9 1019.5 5.8
30/05:12pm 13.6 11.2 12.8 95 0.5 ESE 17 22 9 12 1020.9 1019.5 5.0
30/05:00pm 13.7 11.0 12.9 95 0.5 ESE 19 24 10 13 1020.5 1019.2 5.0
30/04:30pm 13.7 11.4 12.9 95 0.5 SE 17 20 9 11 1020.8 1019.4 4.4
30/04:21pm 13.8 11.5 13.0 95 0.5 ESE 17 20 9 11 1020.8 1019.4 4.2
30/04:16pm 13.9 11.3 13.1 95 0.5 ESE 19 22 10 12 1020.6 1019.3 4.0
30/04:00pm 14.1 12.7 13.3 95 0.5 ESE 13 17 7 9 1020.6 1019.3 3.6
30/03:30pm 14.3 13.6 13.2 93 0.6 SE 9 15 5 8 1020.6 1019.3 2.2
30/03:15pm 14.5 13.7 12.9 90 0.9 SE 9 13 5 7 1020.5 1019.2 1.6
30/03:00pm 14.7 13.4 12.6 87 1.2 SSE 11 15 6 8 1020.3 1019.0 1.2
30/02:30pm 15.2 14.2 12.3 83 1.6 SSE 9 13 5 7 1020.2 1018.9 0.8
30/02:00pm 16.4 14.9 12.0 75 2.5 SE 11 15 6 8 1020.1 1018.8 0.0
30/01:30pm 16.8 13.9 11.1 69 3.2 ESE 17 24 9 13 1019.8 1018.5 0.0
30/01:00pm 17.8 13.4 8.9 56 4.8 ENE 22 30 12 16 1019.9 1018.6 0.0
30/12:30pm 18.4 14.3 8.7 53 5.2 E 20 30 11 16 1020.5 1019.2 0.0
30/12:00pm 18.6 14.8 9.1 54 5.1 E 19 26 10 14 1020.9 1019.5 0.0
30/11:30am 18.7 14.9 8.9 53 5.3 E 19 30 10 16 1021.3 1020.0 0.0
30/11:00am 18.6 13.7 8.6 52 5.3 E 24 35 13 19 1021.4 1020.1 0.0
30/10:30am 18.6 13.7 8.3 51 5.5 E 24 33 13 18 1021.6 1020.3 0.0
30/10:00am 18.3 13.4 8.3 52 5.3 ESE 24 32 13 17 1022.0 1020.7 0.0
30/09:30am 18.0 12.2 8.0 52 5.3 ESE 28 35 15 19 1022.2 1020.9 0.0
30/09:00am 17.8 12.7 7.5 51 5.4 ESE 24 32 13 17 1022.5 1021.1 0.0
30/08:30am 17.8 13.6 7.5 51 5.4 ESE 19 28 10 15 1022.3 1021.0 0.0
30/08:00am 17.2 13.1 8.6 57 4.5 ESE 20 26 11 14 1022.0 1020.7 0.0
30/07:30am 16.6 13.2 9.3 62 3.9 SE 17 20 9 11 1021.8 1020.5 0.0
30/07:00am 16.2 14.0 9.2 63 3.7 SE 11 15 6 8 1021.6 1020.3 0.0
30/06:30am 16.4 13.0 9.1 62 3.9 SE 17 20 9 11 1021.3 1020.0 0.0
30/06:00am 16.0 13.4 9.2 64 3.6 SE 13 15 7 8 1021.0 1019.6 0.0
30/05:30am 15.6 13.4 9.5 67 3.3 SSE 11 13 6 7 1020.8 1019.4 0.0
30/05:00am 15.5 13.8 9.8 69 3.1 SE 9 13 5 7 1020.3 1019.0 0.0
30/04:30am 15.8 14.1 9.9 68 3.2 SE 9 11 5 6 1020.4 1019.1 0.0
30/04:00am 16.3 13.8 9.7 65 3.5 SE 13 15 7 8 1020.5 1019.2 0.0
30/03:30am 16.7 13.9 9.9 64 3.7 SSE 15 20 8 11 1020.6 1019.3 0.0
30/03:00am 16.7 14.7 10.3 66 3.5 SSE 11 15 6 8 1020.6 1019.3 0.0
30/02:30am 17.1 15.3 10.7 66 3.5 SE 11 13 6 7 1020.9 1019.5 0.0
30/02:00am 16.9 15.6 11.2 69 3.2 SE 9 11 5 6 1020.9 1019.5 0.0
30/01:30am 16.6 15.9 11.3 71 3.0 SSE 6 7 3 4 1021.1 1019.8 0.0
30/01:00am 16.9 15.9 11.0 68 3.3 SSE 7 9 4 5 1021.3 1020.0 0.0
30/12:30am 16.9 17.2 11.0 68 3.3 CALM 0 0 0 0 1021.5 1020.2 0.0
30/12:00am 17.0 16.3 11.5 70 3.1 SSE 6 6 3 3 1021.6 1020.3 0.0
 
Date/Time
WST
Temp
°C
App
Temp
°C
Dew
Point
°C
Rel
Hum
%
Delta-T
°C
Wind Press
QNH
hPa
Press
MSL
hPa
Rain since
9am
mm
Dir  Spd
km/h
Gust
km/h
Spd
kts
Gust
kts
29/11:30pm 17.0 17.5 11.5 70 3.1 CALM 0 0 0 0 1021.5 1020.2 0.0
29/11:00pm 15.7 16.4 12.1 79 2.0 CALM 0 0 0 0 1021.8 1020.5 0.0
29/10:30pm 15.7 16.2 11.7 77 2.2 CALM 0 0 0 0 1021.9 1020.6 0.0
29/10:00pm 16.8 16.1 11.5 71 3.0 SSE 6 9 3 5 1021.8 1020.5 0.0
29/09:30pm 16.4 17.0 12.0 75 2.5 CALM 0 0 0 0 1021.5 1020.2 0.0
29/09:00pm 18.2 16.9 11.3 64 3.9 SSE 9 13 5 7 1021.5 1020.2 0.0
29/08:30pm 17.3 18.2 12.8 75 2.6 CALM 0 0 0 0 1021.4 1020.1 0.0
29/08:00pm 18.1 18.9 12.5 70 3.2 CALM 0 0 0 0 1021.3 1020.0 0.0
29/07:30pm 18.9 19.6 12.2 65 3.8 CALM 0 0 0 0 1020.9 1019.5 0.0
29/07:00pm 20.6 19.7 10.7 53 5.6 ENE 6 9 3 5 1020.6 1019.3 0.0
29/06:30pm 20.1 20.6 11.6 58 4.8 CALM 0 6 0 3 1020.2 1018.9 0.0
29/06:00pm 21.1 20.2 11.2 53 5.6 ENE 7 11 4 6 1019.9 1018.6 0.0
29/05:30pm 22.6 22.9 11.0 48 6.6 CALM 0 0 0 0 1019.6 1018.2 0.0
29/05:00pm 23.7 23.3 9.7 41 7.8 SE 2 7 1 4 1019.4 1018.0 0.0
29/04:30pm 23.8 22.7 9.8 41 7.9 SSW 6 9 3 5 1019.1 1017.7 0.0
29/04:00pm 24.1 22.9 9.7 40 8.1 SW 6 11 3 6 1018.8 1017.5 0.0
29/03:30pm 24.0 22.8 9.6 40 8.1 S 6 9 3 5 1018.6 1017.3 0.0
29/03:00pm 23.9 22.5 9.5 40 8.0 WSW 7 11 4 6 1018.5 1017.2 0.0
29/02:30pm 23.7 22.5 9.7 41 7.9 S 6 9 3 5 1018.4 1017.1 0.0
29/02:00pm 23.0 21.1 9.0 41 7.7 S 9 13 5 7 1018.5 1017.2 0.0
29/01:30pm 22.9 21.7 9.7 43 7.4 S 6 13 3 7 1018.6 1017.3 0.0
29/01:00pm 22.5 21.0 8.6 41 7.6 WNW 6 9 3 5 1018.9 1017.6 0.0
29/12:30pm 22.5 21.5 9.0 42 7.4 SE 4 13 2 7 1019.5 1018.1 0.0
29/12:00pm 21.9 20.0 7.7 40 7.6 SSE 7 13 4 7 1020.0 1018.7 0.0
29/11:30am 21.3 19.5 7.9 42 7.2 SE 7 13 4 7 1020.4 1019.1 0.0
29/11:00am 20.5 18.6 7.5 43 6.9 SE 7 13 4 7 1020.8 1019.4 0.0
29/10:30am 20.2 17.9 7.6 44 6.7 ESE 9 13 5 7 1021.0 1019.6 0.0
29/10:00am 19.4 17.8 8.7 50 5.7 ESE 7 9 4 5 1021.3 1020.0 0.0
29/09:30am 18.4 16.7 8.4 52 5.3 SSE 7 11 4 6 1021.4 1020.1 0.0
29/09:00am 17.7 16.3 7.2 50 5.4 SSE 4 7 2 4 1021.4 1020.1 0.0
29/08:30am 16.1 16.0 9.3 64 3.6 CALM 0 0 0 0 1021.2 1019.9 0.0
29/08:00am 14.2 13.9 8.8 70 2.8 CALM 0 0 0 0 1020.9 1019.5 0.0
29/07:30am 12.1 11.9 9.1 82 1.6 CALM 0 0 0 0 1020.5 1019.2 0.0
29/07:00am 10.6 10.2 8.4 86 1.1 CALM 0 0 0 0 1020.2 1018.9 0.0
29/06:30am 11.5 11.0 8.0 79 1.8 CALM 0 0 0 0 1020.0 1018.7 0.0
29/06:00am 11.6 10.6 7.3 75 2.1 WSW 2 7 1 4 1019.8 1018.5 0.0
29/05:30am 11.7 10.4 7.6 76 2.1 WSW 4 7 2 4 1019.7 1018.4 0.0
29/05:00am 11.1 9.5 8.1 82 1.5 WSW 6 6 3 3 1019.6 1018.2 0.0
29/04:30am 11.5 10.6 7.8 78 1.9 WSW 2 7 1 4 1019.6 1018.2 0.0
29/04:00am 12.0 10.4 7.9 76 2.1 WSW 6 9 3 5 1019.7 1018.4 0.0
29/03:30am 11.8 10.1 8.5 80 1.7 WSW 7 9 4 5 1019.7 1018.4 0.0
29/03:00am 12.2 11.4 8.1 76 2.1 SSW 2 7 1 4 1019.6 1018.2 0.0
29/02:30am 11.4 11.0 8.4 82 1.5 CALM 0 0 0 0 1019.6 1018.2 0.0
29/02:00am 12.1 11.7 8.2 77 2.0 CALM 0 0 0 0 1019.9 1018.6 0.0
29/01:30am 11.4 11.0 8.3 81 1.6 CALM 0 0 0 0 1020.1 1018.8 0.0
29/01:00am 11.9 11.4 8.0 77 2.0 CALM 0 0 0 0 1020.3 1019.0 0.0
29/12:30am 12.0 11.6 8.3 78 1.9 CALM 0 0 0 0 1020.4 1019.1 0.0
29/12:00am 11.7 11.5 8.9 83 1.4 CALM 0 0 0 0 1020.4 1019.1 0.0
 
Date/Time
WST
Temp
°C
App
Temp
°C
Dew
Point
°C
Rel
Hum
%
Delta-T
°C
Wind Press
QNH
hPa
Press
MSL
hPa
Rain since
9am
mm
Dir  Spd
km/h
Gust
km/h
Spd
kts
Gust
kts
28/11:30pm 12.2 11.9 8.5 78 1.9 CALM 0 0 0 0 1020.3 1019.0 0.0
28/11:00pm 11.8 11.5 8.8 82 1.5 CALM 0 0 0 0 1020.3 1019.0 0.0
28/10:30pm 12.8 12.6 8.9 77 2.0 CALM 0 0 0 0 1020.4 1019.1 0.0
28/10:00pm 13.4 13.1 8.7 73 2.4 CALM 0 0 0 0 1020.3 1019.0 0.0
28/09:30pm 13.5 12.4 8.6 72 2.5 SSW 4 7 2 4 1020.2 1018.9 0.0
28/09:00pm 15.1 14.7 8.3 64 3.5 CALM 0 4 0 2 1020.2 1018.9 0.0
28/08:30pm 14.5 14.5 9.7 73 2.6 CALM 0 0 0 0 1020.1 1018.8 0.0
28/08:00pm 15.7 14.1 8.9 64 3.6 SSW 7 9 4 5 1019.9 1018.6 0.0
28/07:30pm 16.9 16.0 7.8 55 4.7 WNW 2 6 1 3 1019.5 1018.1 0.0
28/07:00pm 16.5 15.1 8.7 60 4.1 WNW 6 7 3 4 1019.2 1017.8 0.0
28/06:30pm 17.1 15.2 9.0 59 4.3 WNW 9 9 5 5 1018.9 1017.6 0.0
28/06:00pm 18.4 17.7 8.4 52 5.3 WNW 2 7 1 4 1018.5 1017.2 0.0
28/05:30pm 20.0 18.1 6.7 42 6.9 WNW 6 7 3 4 1018.3 1017.0 0.0
28/05:00pm 21.4 18.7 5.7 36 8.1 WNW 9 13 5 7 1018.1 1016.7 0.0
28/04:30pm 21.9 19.2 5.8 35 8.3 WNW 9 17 5 9 1017.9 1016.5 0.0
28/04:00pm 22.2 19.6 6.0 35 8.4 NW 9 15 5 8 1017.8 1016.4 0.0
28/03:30pm 21.8 18.7 5.7 35 8.3 NW 11 19 6 10 1017.8 1016.4 0.0
28/03:00pm 21.5 17.5 5.0 34 8.4 WNW 15 22 8 12 1017.7 1016.3 0.0
28/02:30pm 21.9 19.2 5.8 35 8.3 NW 9 20 5 11 1017.8 1016.4 0.0

Other Formats:

Comma delimited format used in spreadsheet applications
http://www.bom.gov.au/fwo/IDW60801/IDW60801.99313.axf

JavaScript Object Notation format (JSON) in row-major order
http://www.bom.gov.au/fwo/IDW60801/IDW60801.99313.json